sim
Sign-in with your pilot id or email,
or register
Callsign
Passwort

Schedule Details

Flight Number: OEF9159
Departure: Boston Logan International Airport (KBOS) at 05:00
Arrival: Munich Airport (EDDM) at 11:40

Weather Information
Getting current METAR information for KBOS 201854Z 08013KT 10SM SCT060 SCT150 14/01 A3053 RMK AO2 SLP338 T01440011
Getting current METAR information for EDDM 201920Z 35001KT CAVOK 13/11 Q1016 NOSIG

Schedule Frequency

Route Map